Search METAR Data

METAR Data for ENRA:

ENRA 220350Z 36003KT CAVOK 05/02 Q1022